sensor_id;sensor_type;location;lat;lon;timestamp;P1;durP1;ratioP1;P2;durP2;ratioP2
44987;SDS011;35735;52.226;21.254;2023-02-04T00:03:17;10.38;;;6.90;;
44987;SDS011;35735;52.226;21.254;2023-02-04T00:08:17;10.73;;;7.22;;
44987;SDS011;35735;52.226;21.254;2023-02-04T00:13:18;11.23;;;7.80;;
44987;SDS011;35735;52.226;21.254;2023-02-04T00:18:19;10.50;;;7.22;;
44987;SDS011;35735;52.226;21.254;2023-02-04T00:23:19;10.85;;;7.40;;
44987;SDS011;35735;52.226;21.254;2023-02-04T00:28:20;10.07;;;7.62;;
44987;SDS011;35735;52.226;21.254;2023-02-04T00:33:21;13.07;;;6.93;;
44987;SDS011;35735;52.226;21.254;2023-02-04T00:38:21;10.77;;;6.87;;
44987;SDS011;35735;52.226;21.254;2023-02-04T00:43:22;9.52;;;6.95;;
44987;SDS011;35735;52.226;21.254;2023-02-04T00:48:22;10.48;;;6.68;;
44987;SDS011;35735;52.226;21.254;2023-02-04T00:53:23;10.23;;;7.22;;
44987;SDS011;35735;52.226;21.254;2023-02-04T00:58:24;8.75;;;6.18;;
44987;SDS011;35735;52.226;21.254;2023-02-04T01:03:24;9.77;;;6.80;;
44987;SDS011;35735;52.226;21.254;2023-02-04T01:08:25;10.57;;;6.12;;
44987;SDS011;35735;52.226;21.254;2023-02-04T01:13:25;7.95;;;6.05;;
44987;SDS011;35735;52.226;21.254;2023-02-04T01:18:26;9.30;;;6.37;;
44987;SDS011;35735;52.226;21.254;2023-02-04T01:23:27;10.25;;;7.07;;
44987;SDS011;35735;52.226;21.254;2023-02-04T01:28:27;10.02;;;6.30;;
44987;SDS011;35735;52.226;21.254;2023-02-04T01:33:28;8.65;;;6.43;;
44987;SDS011;35735;52.226;21.254;2023-02-04T01:38:28;9.77;;;6.55;;
44987;SDS011;35735;52.226;21.254;2023-02-04T01:43:29;7.72;;;5.68;;
44987;SDS011;35735;52.226;21.254;2023-02-04T01:48:31;8.43;;;6.10;;
44987;SDS011;35735;52.226;21.254;2023-02-04T01:53:32;8.52;;;6.20;;
44987;SDS011;35735;52.226;21.254;2023-02-04T01:58:34;9.32;;;6.53;;
44987;SDS011;35735;52.226;21.254;2023-02-04T02:03:34;12.27;;;6.70;;
44987;SDS011;35735;52.226;21.254;2023-02-04T02:08:35;9.95;;;6.75;;
44987;SDS011;35735;52.226;21.254;2023-02-04T02:13:37;9.38;;;6.28;;
44987;SDS011;35735;52.226;21.254;2023-02-04T02:18:37;9.05;;;5.70;;
44987;SDS011;35735;52.226;21.254;2023-02-04T02:23:48;7.00;;;5.37;;
44987;SDS011;35735;52.226;21.254;2023-02-04T02:28:54;7.55;;;5.80;;
44987;SDS011;35735;52.226;21.254;2023-02-04T02:33:55;7.87;;;5.07;;
44987;SDS011;35735;52.226;21.254;2023-02-04T02:38:56;7.68;;;4.93;;
44987;SDS011;35735;52.226;21.254;2023-02-04T02:43:56;7.97;;;4.70;;
44987;SDS011;35735;52.226;21.254;2023-02-04T02:48:57;6.32;;;4.45;;
44987;SDS011;35735;52.226;21.254;2023-02-04T02:53:58;7.35;;;4.82;;
44987;SDS011;35735;52.226;21.254;2023-02-04T02:59:11;7.95;;;5.15;;
44987;SDS011;35735;52.226;21.254;2023-02-04T03:04:16;5.87;;;4.60;;
44987;SDS011;35735;52.226;21.254;2023-02-04T03:09:19;6.93;;;4.78;;
44987;SDS011;35735;52.226;21.254;2023-02-04T03:14:20;5.95;;;4.40;;
44987;SDS011;35735;52.226;21.254;2023-02-04T03:19:22;6.78;;;4.57;;
44987;SDS011;35735;52.226;21.254;2023-02-04T03:24:24;6.72;;;4.50;;
44987;SDS011;35735;52.226;21.254;2023-02-04T03:29:26;7.78;;;4.78;;
44987;SDS011;35735;52.226;21.254;2023-02-04T03:34:26;5.97;;;4.68;;
44987;SDS011;35735;52.226;21.254;2023-02-04T03:39:27;6.12;;;4.50;;
44987;SDS011;35735;52.226;21.254;2023-02-04T03:44:27;8.05;;;4.57;;
44987;SDS011;35735;52.226;21.254;2023-02-04T03:49:28;5.50;;;4.30;;
44987;SDS011;35735;52.226;21.254;2023-02-04T03:54:29;6.37;;;4.10;;
44987;SDS011;35735;52.226;21.254;2023-02-04T03:59:29;5.55;;;4.00;;
44987;SDS011;35735;52.226;21.254;2023-02-04T04:04:30;6.32;;;3.87;;
44987;SDS011;35735;52.226;21.254;2023-02-04T04:09:31;5.85;;;4.15;;
44987;SDS011;35735;52.226;21.254;2023-02-04T04:14:31;5.97;;;4.10;;
44987;SDS011;35735;52.226;21.254;2023-02-04T04:19:32;6.57;;;3.90;;
44987;SDS011;35735;52.226;21.254;2023-02-04T04:24:33;4.68;;;4.05;;
44987;SDS011;35735;52.226;21.254;2023-02-04T04:29:33;5.65;;;4.22;;
44987;SDS011;35735;52.226;21.254;2023-02-04T04:34:34;6.18;;;4.07;;
44987;SDS011;35735;52.226;21.254;2023-02-04T04:39:35;9.45;;;4.70;;
44987;SDS011;35735;52.226;21.254;2023-02-04T04:44:36;7.72;;;4.40;;
44987;SDS011;35735;52.226;21.254;2023-02-04T04:49:37;6.80;;;4.85;;
44987;SDS011;35735;52.226;21.254;2023-02-04T04:54:38;8.00;;;5.18;;
44987;SDS011;35735;52.226;21.254;2023-02-04T04:59:38;7.40;;;5.62;;
44987;SDS011;35735;52.226;21.254;2023-02-04T05:04:39;10.75;;;7.03;;
44987;SDS011;35735;52.226;21.254;2023-02-04T05:09:40;11.43;;;6.28;;
44987;SDS011;35735;52.226;21.254;2023-02-04T05:14:41;9.82;;;7.45;;
44987;SDS011;35735;52.226;21.254;2023-02-04T05:19:41;8.52;;;5.62;;
44987;SDS011;35735;52.226;21.254;2023-02-04T05:24:42;10.52;;;7.12;;
44987;SDS011;35735;52.226;21.254;2023-02-04T05:29:43;10.23;;;6.50;;
44987;SDS011;35735;52.226;21.254;2023-02-04T05:34:43;9.13;;;6.18;;
44987;SDS011;35735;52.226;21.254;2023-02-04T05:39:44;8.60;;;6.50;;
44987;SDS011;35735;52.226;21.254;2023-02-04T05:44:45;8.63;;;6.00;;
44987;SDS011;35735;52.226;21.254;2023-02-04T05:49:45;8.15;;;6.00;;
44987;SDS011;35735;52.226;21.254;2023-02-04T05:54:46;7.62;;;5.35;;
44987;SDS011;35735;52.226;21.254;2023-02-04T05:59:46;9.18;;;5.82;;
44987;SDS011;35735;52.226;21.254;2023-02-04T06:04:47;7.95;;;6.00;;
44987;SDS011;35735;52.226;21.254;2023-02-04T06:09:48;9.20;;;5.85;;
44987;SDS011;35735;52.226;21.254;2023-02-04T06:14:48;7.90;;;5.35;;
44987;SDS011;35735;52.226;21.254;2023-02-04T06:19:49;7.68;;;5.43;;
44987;SDS011;35735;52.226;21.254;2023-02-04T06:24:49;7.72;;;4.82;;
44987;SDS011;35735;52.226;21.254;2023-02-04T06:29:51;8.18;;;5.03;;
44987;SDS011;35735;52.226;21.254;2023-02-04T06:34:52;7.25;;;5.07;;
44987;SDS011;35735;52.226;21.254;2023-02-04T06:39:53;7.72;;;5.00;;
44987;SDS011;35735;52.226;21.254;2023-02-04T06:44:54;6.28;;;4.60;;
44987;SDS011;35735;52.226;21.254;2023-02-04T06:49:54;7.95;;;5.03;;
44987;SDS011;35735;52.226;21.254;2023-02-04T06:54:55;7.07;;;5.05;;
44987;SDS011;35735;52.226;21.254;2023-02-04T06:59:55;8.82;;;4.85;;
44987;SDS011;35735;52.226;21.254;2023-02-04T07:04:56;8.65;;;4.90;;
44987;SDS011;35735;52.226;21.254;2023-02-04T07:09:56;7.65;;;5.12;;
44987;SDS011;35735;52.226;21.254;2023-02-04T07:14:57;8.52;;;4.80;;
44987;SDS011;35735;52.226;21.254;2023-02-04T07:19:57;11.35;;;5.80;;
44987;SDS011;35735;52.226;21.254;2023-02-04T07:24:58;14.50;;;5.72;;
44987;SDS011;35735;52.226;21.254;2023-02-04T07:29:59;19.08;;;7.50;;
44987;SDS011;35735;52.226;21.254;2023-02-04T07:34:59;11.93;;;5.40;;
44987;SDS011;35735;52.226;21.254;2023-02-04T07:40:00;9.05;;;4.90;;
44987;SDS011;35735;52.226;21.254;2023-02-04T07:45:00;8.77;;;4.47;;
44987;SDS011;35735;52.226;21.254;2023-02-04T07:50:01;7.28;;;4.50;;
44987;SDS011;35735;52.226;21.254;2023-02-04T07:55:02;5.50;;;3.42;;
44987;SDS011;35735;52.226;21.254;2023-02-04T08:00:03;6.85;;;4.00;;
44987;SDS011;35735;52.226;21.254;2023-02-04T08:05:05;5.60;;;3.45;;
44987;SDS011;35735;52.226;21.254;2023-02-04T08:10:07;6.60;;;3.67;;
44987;SDS011;35735;52.226;21.254;2023-02-04T08:15:09;8.82;;;4.12;;
44987;SDS011;35735;52.226;21.254;2023-02-04T08:20:10;6.30;;;3.47;;
44987;SDS011;35735;52.226;21.254;2023-02-04T08:25:11;6.50;;;3.45;;
44987;SDS011;35735;52.226;21.254;2023-02-04T08:30:12;5.07;;;3.30;;
44987;SDS011;35735;52.226;21.254;2023-02-04T08:35:13;6.62;;;3.28;;
44987;SDS011;35735;52.226;21.254;2023-02-04T08:40:13;8.23;;;3.80;;
44987;SDS011;35735;52.226;21.254;2023-02-04T08:45:14;5.55;;;3.03;;
44987;SDS011;35735;52.226;21.254;2023-02-04T08:50:17;8.32;;;3.85;;
44987;SDS011;35735;52.226;21.254;2023-02-04T08:55:17;6.03;;;3.30;;
44987;SDS011;35735;52.226;21.254;2023-02-04T09:00:18;4.55;;;2.47;;
44987;SDS011;35735;52.226;21.254;2023-02-04T09:05:19;7.05;;;3.87;;
44987;SDS011;35735;52.226;21.254;2023-02-04T09:10:19;7.30;;;3.10;;
44987;SDS011;35735;52.226;21.254;2023-02-04T09:15:20;5.05;;;2.55;;
44987;SDS011;35735;52.226;21.254;2023-02-04T09:20:22;4.87;;;3.20;;
44987;SDS011;35735;52.226;21.254;2023-02-04T09:25:23;6.03;;;3.15;;
44987;SDS011;35735;52.226;21.254;2023-02-04T09:30:24;7.50;;;3.50;;
44987;SDS011;35735;52.226;21.254;2023-02-04T09:35:24;8.48;;;3.70;;
44987;SDS011;35735;52.226;21.254;2023-02-04T09:40:25;7.12;;;3.67;;
44987;SDS011;35735;52.226;21.254;2023-02-04T09:45:28;8.68;;;4.80;;
44987;SDS011;35735;52.226;21.254;2023-02-04T09:50:32;9.80;;;6.60;;
44987;SDS011;35735;52.226;21.254;2023-02-04T09:55:39;5.47;;;3.42;;
44987;SDS011;35735;52.226;21.254;2023-02-04T10:00:44;3.17;;;2.08;;
44987;SDS011;35735;52.226;21.254;2023-02-04T10:05:47;3.55;;;2.20;;
44987;SDS011;35735;52.226;21.254;2023-02-04T10:10:49;3.17;;;2.20;;
44987;SDS011;35735;52.226;21.254;2023-02-04T10:15:50;4.12;;;1.90;;
44987;SDS011;35735;52.226;21.254;2023-02-04T10:20:51;4.10;;;1.98;;
44987;SDS011;35735;52.226;21.254;2023-02-04T10:25:57;3.47;;;2.00;;
44987;SDS011;35735;52.226;21.254;2023-02-04T10:30:57;4.15;;;2.10;;
44987;SDS011;35735;52.226;21.254;2023-02-04T10:35:58;4.35;;;2.20;;
44987;SDS011;35735;52.226;21.254;2023-02-04T10:40:59;6.70;;;3.60;;
44987;SDS011;35735;52.226;21.254;2023-02-04T10:46:01;3.83;;;2.55;;
44987;SDS011;35735;52.226;21.254;2023-02-04T10:51:03;4.82;;;3.03;;
44987;SDS011;35735;52.226;21.254;2023-02-04T10:56:05;3.97;;;2.50;;
44987;SDS011;35735;52.226;21.254;2023-02-04T11:01:16;3.58;;;2.30;;
44987;SDS011;35735;52.226;21.254;2023-02-04T11:06:19;3.65;;;2.40;;
44987;SDS011;35735;52.226;21.254;2023-02-04T11:11:23;3.85;;;2.53;;
44987;SDS011;35735;52.226;21.254;2023-02-04T11:16:26;3.65;;;2.22;;
44987;SDS011;35735;52.226;21.254;2023-02-04T11:26:43;6.55;;;2.65;;
44987;SDS011;35735;52.226;21.254;2023-02-04T11:42:00;8.98;;;6.45;;
44987;SDS011;35735;52.226;21.254;2023-02-04T11:47:01;5.60;;;3.30;;
44987;SDS011;35735;52.226;21.254;2023-02-04T11:52:10;6.53;;;3.33;;
44987;SDS011;35735;52.226;21.254;2023-02-04T11:57:13;7.15;;;3.58;;
44987;SDS011;35735;52.226;21.254;2023-02-04T12:02:18;6.68;;;3.72;;
44987;SDS011;35735;52.226;21.254;2023-02-04T12:07:24;6.68;;;3.28;;
44987;SDS011;35735;52.226;21.254;2023-02-04T12:12:28;5.12;;;3.00;;
44987;SDS011;35735;52.226;21.254;2023-02-04T12:17:29;4.93;;;3.20;;
44987;SDS011;35735;52.226;21.254;2023-02-04T12:22:31;6.05;;;3.50;;
44987;SDS011;35735;52.226;21.254;2023-02-04T12:27:32;5.68;;;3.37;;
44987;SDS011;35735;52.226;21.254;2023-02-04T12:32:35;4.00;;;2.95;;
44987;SDS011;35735;52.226;21.254;2023-02-04T12:37:36;7.47;;;4.15;;
44987;SDS011;35735;52.226;21.254;2023-02-04T12:42:37;7.65;;;4.35;;
44987;SDS011;35735;52.226;21.254;2023-02-04T12:47:37;9.77;;;6.03;;
44987;SDS011;35735;52.226;21.254;2023-02-04T12:52:38;5.65;;;3.42;;
44987;SDS011;35735;52.226;21.254;2023-02-04T12:57:39;6.20;;;3.85;;
44987;SDS011;35735;52.226;21.254;2023-02-04T13:02:40;6.57;;;3.65;;
44987;SDS011;35735;52.226;21.254;2023-02-04T13:07:41;5.07;;;3.20;;
44987;SDS011;35735;52.226;21.254;2023-02-04T13:12:42;5.07;;;3.40;;
44987;SDS011;35735;52.226;21.254;2023-02-04T13:17:43;6.28;;;4.18;;
44987;SDS011;35735;52.226;21.254;2023-02-04T13:22:43;6.12;;;3.22;;
44987;SDS011;35735;52.226;21.254;2023-02-04T13:27:47;13.62;;;5.32;;
44987;SDS011;35735;52.226;21.254;2023-02-04T13:32:48;5.18;;;3.30;;
44987;SDS011;35735;52.226;21.254;2023-02-04T13:37:49;6.00;;;2.80;;
44987;SDS011;35735;52.226;21.254;2023-02-04T13:42:49;14.82;;;6.85;;
44987;SDS011;35735;52.226;21.254;2023-02-04T13:47:50;7.18;;;3.30;;
44987;SDS011;35735;52.226;21.254;2023-02-04T13:52:51;9.65;;;4.18;;
44987;SDS011;35735;52.226;21.254;2023-02-04T13:57:51;12.60;;;5.65;;
44987;SDS011;35735;52.226;21.254;2023-02-04T14:02:52;5.82;;;2.85;;
44987;SDS011;35735;52.226;21.254;2023-02-04T14:07:52;5.32;;;2.62;;
44987;SDS011;35735;52.226;21.254;2023-02-04T14:12:53;5.22;;;2.40;;
44987;SDS011;35735;52.226;21.254;2023-02-04T14:17:53;6.25;;;3.65;;
44987;SDS011;35735;52.226;21.254;2023-02-04T14:22:54;5.10;;;3.22;;
44987;SDS011;35735;52.226;21.254;2023-02-04T14:27:55;5.57;;;2.87;;
44987;SDS011;35735;52.226;21.254;2023-02-04T14:32:55;6.28;;;3.60;;
44987;SDS011;35735;52.226;21.254;2023-02-04T14:37:56;6.20;;;3.90;;
44987;SDS011;35735;52.226;21.254;2023-02-04T14:42:57;5.70;;;3.42;;
44987;SDS011;35735;52.226;21.254;2023-02-04T14:47:58;8.88;;;7.25;;
44987;SDS011;35735;52.226;21.254;2023-02-04T14:52:58;3.45;;;2.50;;
44987;SDS011;35735;52.226;21.254;2023-02-04T14:57:59;4.75;;;2.90;;
44987;SDS011;35735;52.226;21.254;2023-02-04T15:02:59;5.37;;;3.00;;
44987;SDS011;35735;52.226;21.254;2023-02-04T15:08:00;6.75;;;3.78;;
44987;SDS011;35735;52.226;21.254;2023-02-04T15:13:00;5.37;;;3.00;;
44987;SDS011;35735;52.226;21.254;2023-02-04T15:18:01;6.18;;;3.50;;
44987;SDS011;35735;52.226;21.254;2023-02-04T15:23:02;9.25;;;4.87;;
44987;SDS011;35735;52.226;21.254;2023-02-04T15:28:02;14.95;;;6.07;;
44987;SDS011;35735;52.226;21.254;2023-02-04T15:33:03;5.60;;;3.60;;
44987;SDS011;35735;52.226;21.254;2023-02-04T15:38:03;18.23;;;9.20;;
44987;SDS011;35735;52.226;21.254;2023-02-04T15:43:04;22.90;;;8.00;;
44987;SDS011;35735;52.226;21.254;2023-02-04T15:48:05;15.98;;;7.57;;
44987;SDS011;35735;52.226;21.254;2023-02-04T15:53:06;9.88;;;4.43;;
44987;SDS011;35735;52.226;21.254;2023-02-04T15:58:06;10.60;;;5.00;;
44987;SDS011;35735;52.226;21.254;2023-02-04T16:03:07;6.87;;;3.37;;
44987;SDS011;35735;52.226;21.254;2023-02-04T16:08:10;6.20;;;3.60;;
44987;SDS011;35735;52.226;21.254;2023-02-04T16:13:11;4.30;;;2.95;;
44987;SDS011;35735;52.226;21.254;2023-02-04T16:18:11;6.40;;;3.30;;
44987;SDS011;35735;52.226;21.254;2023-02-04T16:23:12;5.07;;;3.42;;
44987;SDS011;35735;52.226;21.254;2023-02-04T16:28:13;11.88;;;4.10;;
44987;SDS011;35735;52.226;21.254;2023-02-04T16:33:13;10.13;;;4.82;;
44987;SDS011;35735;52.226;21.254;2023-02-04T16:38:14;10.40;;;5.60;;
44987;SDS011;35735;52.226;21.254;2023-02-04T16:43:14;8.98;;;4.18;;
44987;SDS011;35735;52.226;21.254;2023-02-04T16:48:15;10.48;;;5.28;;
44987;SDS011;35735;52.226;21.254;2023-02-04T16:53:16;16.15;;;6.70;;
44987;SDS011;35735;52.226;21.254;2023-02-04T16:58:17;9.73;;;4.80;;
44987;SDS011;35735;52.226;21.254;2023-02-04T17:03:17;10.65;;;6.03;;
44987;SDS011;35735;52.226;21.254;2023-02-04T17:08:18;14.20;;;6.87;;
44987;SDS011;35735;52.226;21.254;2023-02-04T17:13:19;13.05;;;7.12;;
44987;SDS011;35735;52.226;21.254;2023-02-04T17:18:20;10.63;;;6.47;;
44987;SDS011;35735;52.226;21.254;2023-02-04T17:23:21;14.50;;;7.07;;
44987;SDS011;35735;52.226;21.254;2023-02-04T17:28:21;12.80;;;7.03;;
44987;SDS011;35735;52.226;21.254;2023-02-04T17:33:22;15.32;;;7.72;;
44987;SDS011;35735;52.226;21.254;2023-02-04T17:38:23;16.08;;;8.05;;
44987;SDS011;35735;52.226;21.254;2023-02-04T17:43:23;14.55;;;8.27;;
44987;SDS011;35735;52.226;21.254;2023-02-04T17:48:24;12.63;;;6.75;;
44987;SDS011;35735;52.226;21.254;2023-02-04T17:53:25;13.50;;;7.70;;
44987;SDS011;35735;52.226;21.254;2023-02-04T17:58:26;16.42;;;7.78;;
44987;SDS011;35735;52.226;21.254;2023-02-04T18:03:28;12.77;;;6.55;;
44987;SDS011;35735;52.226;21.254;2023-02-04T18:08:35;10.18;;;6.18;;
44987;SDS011;35735;52.226;21.254;2023-02-04T18:13:41;13.85;;;7.53;;
44987;SDS011;35735;52.226;21.254;2023-02-04T18:18:42;12.60;;;7.00;;
44987;SDS011;35735;52.226;21.254;2023-02-04T18:23:43;12.65;;;6.70;;
44987;SDS011;35735;52.226;21.254;2023-02-04T18:28:44;11.70;;;6.32;;
44987;SDS011;35735;52.226;21.254;2023-02-04T18:33:47;11.60;;;5.65;;
44987;SDS011;35735;52.226;21.254;2023-02-04T18:38:49;12.63;;;6.32;;
44987;SDS011;35735;52.226;21.254;2023-02-04T18:43:50;12.57;;;6.40;;
44987;SDS011;35735;52.226;21.254;2023-02-04T18:49:01;12.70;;;6.72;;
44987;SDS011;35735;52.226;21.254;2023-02-04T18:54:24;12.73;;;6.70;;
44987;SDS011;35735;52.226;21.254;2023-02-04T18:59:32;14.23;;;7.30;;
44987;SDS011;35735;52.226;21.254;2023-02-04T19:04:34;22.08;;;10.75;;
44987;SDS011;35735;52.226;21.254;2023-02-04T19:09:36;30.20;;;12.45;;
44987;SDS011;35735;52.226;21.254;2023-02-04T19:14:41;23.08;;;11.25;;
44987;SDS011;35735;52.226;21.254;2023-02-04T19:30:38;17.83;;;8.80;;
44987;SDS011;35735;52.226;21.254;2023-02-04T19:35:44;18.15;;;8.57;;
44987;SDS011;35735;52.226;21.254;2023-02-04T19:40:45;14.35;;;8.05;;
44987;SDS011;35735;52.226;21.254;2023-02-04T19:45:47;15.30;;;8.13;;
44987;SDS011;35735;52.226;21.254;2023-02-04T19:50:52;17.00;;;8.48;;
44987;SDS011;35735;52.226;21.254;2023-02-04T19:55:55;16.27;;;8.38;;
44987;SDS011;35735;52.226;21.254;2023-02-04T20:11:35;18.70;;;8.95;;
44987;SDS011;35735;52.226;21.254;2023-02-04T20:16:40;15.00;;;8.10;;
44987;SDS011;35735;52.226;21.254;2023-02-04T20:22:31;17.55;;;9.20;;
44987;SDS011;35735;52.226;21.254;2023-02-04T20:27:27;18.12;;;9.07;;
44987;SDS011;35735;52.226;21.254;2023-02-04T20:32:36;20.17;;;9.20;;
44987;SDS011;35735;52.226;21.254;2023-02-04T20:37:54;20.73;;;11.38;;
44987;SDS011;35735;52.226;21.254;2023-02-04T20:43:05;19.42;;;10.25;;
44987;SDS011;35735;52.226;21.254;2023-02-04T20:53:18;19.50;;;10.35;;
44987;SDS011;35735;52.226;21.254;2023-02-04T20:58:37;21.55;;;10.98;;
44987;SDS011;35735;52.226;21.254;2023-02-04T21:03:44;24.42;;;11.43;;
44987;SDS011;35735;52.226;21.254;2023-02-04T21:08:45;27.62;;;12.05;;
44987;SDS011;35735;52.226;21.254;2023-02-04T21:13:47;22.00;;;11.68;;
44987;SDS011;35735;52.226;21.254;2023-02-04T21:18:49;21.85;;;11.05;;
44987;SDS011;35735;52.226;21.254;2023-02-04T21:23:50;23.35;;;11.52;;
44987;SDS011;35735;52.226;21.254;2023-02-04T21:28:50;24.83;;;12.70;;
44987;SDS011;35735;52.226;21.254;2023-02-04T21:33:51;26.65;;;13.90;;
44987;SDS011;35735;52.226;21.254;2023-02-04T21:38:52;34.20;;;15.48;;
44987;SDS011;35735;52.226;21.254;2023-02-04T21:43:53;30.83;;;13.20;;
44987;SDS011;35735;52.226;21.254;2023-02-04T21:48:54;27.10;;;13.18;;
44987;SDS011;35735;52.226;21.254;2023-02-04T21:53:55;29.58;;;13.73;;
44987;SDS011;35735;52.226;21.254;2023-02-04T21:58:56;43.53;;;16.08;;
44987;SDS011;35735;52.226;21.254;2023-02-04T22:03:56;33.75;;;14.50;;
44987;SDS011;35735;52.226;21.254;2023-02-04T22:08:57;27.37;;;12.05;;
44987;SDS011;35735;52.226;21.254;2023-02-04T22:13:57;21.25;;;10.43;;
44987;SDS011;35735;52.226;21.254;2023-02-04T22:18:58;20.27;;;10.52;;
44987;SDS011;35735;52.226;21.254;2023-02-04T22:23:58;21.95;;;9.88;;
44987;SDS011;35735;52.226;21.254;2023-02-04T22:29:01;16.90;;;8.38;;
44987;SDS011;35735;52.226;21.254;2023-02-04T22:34:02;22.25;;;11.00;;
44987;SDS011;35735;52.226;21.254;2023-02-04T22:39:03;20.02;;;10.30;;
44987;SDS011;35735;52.226;21.254;2023-02-04T22:44:03;28.58;;;14.87;;
44987;SDS011;35735;52.226;21.254;2023-02-04T22:49:04;24.73;;;11.52;;
44987;SDS011;35735;52.226;21.254;2023-02-04T22:54:05;23.95;;;11.73;;
44987;SDS011;35735;52.226;21.254;2023-02-04T22:59:06;25.40;;;12.70;;
44987;SDS011;35735;52.226;21.254;2023-02-04T23:04:07;29.05;;;13.75;;
44987;SDS011;35735;52.226;21.254;2023-02-04T23:09:07;24.85;;;12.85;;
44987;SDS011;35735;52.226;21.254;2023-02-04T23:14:08;26.15;;;12.90;;
44987;SDS011;35735;52.226;21.254;2023-02-04T23:19:09;23.45;;;11.63;;
44987;SDS011;35735;52.226;21.254;2023-02-04T23:24:09;26.27;;;10.73;;
44987;SDS011;35735;52.226;21.254;2023-02-04T23:29:10;22.23;;;10.43;;
44987;SDS011;35735;52.226;21.254;2023-02-04T23:34:10;20.52;;;10.38;;
44987;SDS011;35735;52.226;21.254;2023-02-04T23:39:11;21.83;;;10.50;;
44987;SDS011;35735;52.226;21.254;2023-02-04T23:44:12;18.87;;;9.70;;
44987;SDS011;35735;52.226;21.254;2023-02-04T23:49:12;25.08;;;10.85;;
44987;SDS011;35735;52.226;21.254;2023-02-04T23:54:13;18.83;;;9.30;;
44987;SDS011;35735;52.226;21.254;2023-02-04T23:59:14;21.05;;;10.20;;
